createdAt,value
2018-11-11T00:02:20.901Z,130.43
2018-11-11T00:04:47.942Z,116.23
2018-11-11T00:07:14.968Z,118.27
2018-11-11T00:09:42.052Z,129.27
2018-11-11T00:12:09.092Z,121.13
2018-11-11T00:14:36.252Z,119.93
2018-11-11T00:17:03.376Z,125.80
2018-11-11T00:19:30.528Z,116.20
2018-11-11T00:21:57.558Z,116.50
2018-11-11T00:24:24.848Z,118.20
2018-11-11T00:26:51.969Z,117.17
2018-11-11T00:29:18.996Z,114.90
2018-11-11T00:31:46.064Z,113.93
2018-11-11T00:34:13.203Z,111.47
2018-11-11T00:36:40.317Z,118.33
2018-11-11T00:39:08.477Z,118.27
2018-11-11T00:41:35.516Z,120.10
2018-11-11T00:44:02.552Z,117.87
2018-11-11T00:46:29.627Z,120.53
2018-11-11T00:48:56.682Z,121.90
2018-11-11T00:51:23.740Z,126.03
2018-11-11T00:53:51.190Z,120.30
2018-11-11T00:56:18.227Z,130.57
2018-11-11T00:58:45.321Z,126.93
2018-11-11T01:01:12.660Z,121.03
2018-11-11T01:03:39.703Z,129.70
2018-11-11T01:06:06.761Z,127.67
2018-11-11T01:08:33.864Z,134.00
2018-11-11T01:11:00.926Z,123.37
2018-11-11T01:13:28.045Z,121.77
2018-11-11T01:15:55.153Z,115.67
2018-11-11T01:18:22.237Z,114.27
2018-11-11T01:20:49.344Z,126.77
2018-11-11T01:23:16.464Z,113.77
2018-11-11T01:25:43.504Z,109.20
2018-11-11T01:28:10.611Z,116.43
2018-11-11T01:30:37.716Z,117.50
2018-11-11T01:33:04.792Z,109.67
2018-11-11T01:35:31.914Z,118.50
2018-11-11T01:37:59.073Z,110.97
2018-11-11T01:40:26.119Z,108.80
2018-11-11T01:42:53.237Z,109.40
2018-11-11T01:45:20.368Z,115.33
2018-11-11T01:47:47.984Z,117.53
2018-11-11T01:50:15.220Z,119.83
2018-11-11T01:52:42.272Z,119.07
2018-11-11T01:55:10.445Z,109.37
2018-11-11T01:57:37.672Z,104.60
2018-11-11T02:00:06.166Z,123.27
2018-11-11T02:02:33.192Z,108.17
2018-11-11T02:05:00.239Z,109.40
2018-11-11T02:07:27.491Z,120.27
2018-11-11T02:09:54.678Z,119.70
2018-11-11T02:12:21.814Z,113.53
2018-11-11T02:14:48.906Z,120.63
2018-11-11T02:17:15.968Z,113.43
2018-11-11T02:19:43.035Z,113.33
2018-11-11T02:22:10.083Z,110.40
2018-11-11T02:24:37.124Z,120.67
2018-11-11T02:27:04.732Z,113.07
2018-11-11T02:29:31.812Z,119.60
2018-11-11T02:31:58.856Z,119.33
2018-11-11T02:34:25.897Z,118.30
2018-11-11T02:36:53.312Z,119.17
2018-11-11T02:39:20.359Z,120.60
2018-11-11T02:41:47.405Z,116.60
2018-11-11T02:44:14.764Z,126.67
2018-11-11T02:46:41.901Z,113.93
2018-11-11T02:49:08.940Z,112.17
2018-11-11T02:51:36.065Z,115.67
2018-11-11T02:54:03.175Z,109.63
2018-11-11T02:56:30.228Z,104.93
2018-11-11T02:58:57.687Z,116.13
2018-11-11T03:01:24.775Z,115.27
2018-11-11T03:03:51.811Z,113.50
2018-11-11T03:06:19.124Z,115.30
2018-11-11T03:08:46.172Z,117.80
2018-11-11T03:11:13.215Z,113.30
2018-11-11T03:13:40.306Z,120.60
2018-11-11T03:16:07.340Z,122.33
2018-11-11T03:18:34.388Z,104.90
2018-11-11T03:21:01.447Z,118.43
2018-11-11T03:23:28.483Z,110.37
2018-11-11T03:25:55.520Z,106.27
2018-11-11T03:28:22.965Z,103.80
2018-11-11T03:30:50.044Z,109.57
2018-11-11T03:33:17.087Z,101.93
2018-11-11T03:35:44.367Z,115.87
2018-11-11T03:38:11.384Z,102.70
2018-11-11T03:40:38.423Z,104.80
2018-11-11T03:43:05.503Z,107.47
2018-11-11T03:45:32.695Z,101.37
2018-11-11T03:47:59.760Z,105.60
2018-11-11T03:50:26.828Z,110.37
2018-11-11T03:52:53.931Z,108.30
2018-11-11T03:55:21.176Z,109.63
2018-11-11T03:57:48.275Z,116.93
2018-11-11T04:00:16.043Z,105.57
2018-11-11T04:02:43.135Z,107.17
2018-11-11T04:05:11.590Z,108.70
2018-11-11T04:07:39.119Z,102.47
2018-11-11T04:10:07.130Z,105.67
2018-11-11T04:12:34.456Z,109.57
2018-11-11T04:15:01.489Z,107.67
2018-11-11T04:17:28.589Z,109.50
2018-11-11T04:19:55.648Z,105.00
2018-11-11T04:22:22.683Z,97.07
2018-11-11T04:24:50.838Z,109.63
2018-11-11T04:27:18.364Z,101.37
2018-11-11T04:29:45.450Z,102.73
2018-11-11T04:32:12.469Z,96.27
2018-11-11T04:34:40.164Z,103.57
2018-11-11T04:37:07.719Z,102.47
2018-11-11T04:39:34.763Z,102.43
2018-11-11T04:42:02.281Z,102.17
2018-11-11T04:44:29.363Z,101.47
2018-11-11T04:46:56.409Z,96.37
2018-11-11T04:49:23.733Z,105.13
2018-11-11T04:51:50.844Z,102.40
2018-11-11T04:54:17.891Z,100.60
2018-11-11T04:56:44.951Z,106.40
2018-11-11T04:59:11.996Z,97.63
2018-11-11T05:01:39.150Z,95.17
2018-11-11T05:04:06.469Z,104.27
2018-11-11T05:06:33.495Z,99.13
2018-11-11T05:09:00.541Z,99.50
2018-11-11T05:11:27.612Z,93.93
2018-11-11T05:13:54.641Z,98.20
2018-11-11T05:16:21.739Z,102.23
2018-11-11T05:18:48.784Z,98.43
2018-11-11T05:21:15.839Z,90.93
2018-11-11T05:23:42.879Z,95.13
2018-11-11T05:26:10.192Z,93.20
2018-11-11T05:28:37.232Z,98.37
2018-11-11T05:31:04.577Z,103.03
2018-11-11T05:33:31.652Z,89.47
2018-11-11T05:35:58.687Z,92.50
2018-11-11T05:38:25.755Z,98.57
2018-11-11T05:40:52.835Z,88.13
2018-11-11T05:43:19.870Z,84.80
2018-11-11T05:45:46.907Z,94.87
2018-11-11T05:48:13.993Z,96.60
2018-11-11T05:50:41.019Z,88.77
2018-11-11T05:53:08.056Z,94.83
2018-11-11T05:55:35.575Z,91.33
2018-11-11T05:58:02.725Z,92.67
2018-11-11T06:00:29.774Z,81.57
2018-11-11T06:02:57.048Z,90.07
2018-11-11T06:05:24.095Z,88.50
2018-11-11T06:07:51.171Z,87.03
2018-11-11T06:10:18.439Z,87.50
2018-11-11T06:12:45.538Z,88.00
2018-11-11T06:15:13.227Z,83.60
2018-11-11T06:17:40.317Z,89.80
2018-11-11T06:20:08.083Z,90.77
2018-11-11T06:22:35.269Z,89.17
2018-11-11T06:25:02.318Z,85.40
2018-11-11T06:27:29.355Z,84.10
2018-11-11T06:29:56.384Z,87.87
2018-11-11T06:32:23.431Z,82.47
2018-11-11T06:34:50.464Z,86.30
2018-11-11T06:37:17.511Z,83.47
2018-11-11T06:39:44.882Z,92.13
2018-11-11T06:42:11.916Z,86.97
2018-11-11T06:44:38.940Z,80.63
2018-11-11T06:47:06.332Z,81.70
2018-11-11T06:49:33.356Z,85.37
2018-11-11T06:52:00.544Z,85.60
2018-11-11T06:54:27.595Z,80.03
2018-11-11T06:56:54.631Z,85.70
2018-11-11T06:59:21.784Z,81.97
2018-11-11T07:01:49.123Z,94.77
2018-11-11T07:04:16.164Z,85.97
2018-11-11T07:06:43.223Z,93.87
2018-11-11T07:09:10.491Z,89.03
2018-11-11T07:11:37.515Z,88.53
2018-11-11T07:14:04.613Z,88.77
2018-11-11T07:16:31.606Z,90.73
2018-11-11T07:18:58.663Z,101.73
2018-11-11T07:21:25.701Z,92.57
2018-11-11T07:23:52.826Z,102.13
2018-11-11T07:26:19.819Z,100.00
2018-11-11T07:28:54.033Z,92.90
2018-11-11T07:31:21.079Z,107.63
2018-11-11T07:33:48.123Z,96.00
2018-11-11T07:36:15.187Z,86.10
2018-11-11T07:38:42.261Z,112.83
2018-11-11T07:41:09.316Z,95.40
2018-11-11T07:43:36.900Z,107.60
2018-11-11T07:46:03.968Z,94.63
2018-11-11T07:48:31.019Z,106.07
2018-11-11T07:50:58.347Z,108.33
2018-11-11T07:53:25.444Z,96.93
2018-11-11T07:55:52.495Z,113.43
2018-11-11T07:58:19.619Z,97.53
2018-11-11T08:00:46.800Z,103.17
2018-11-11T08:03:13.888Z,106.40
2018-11-11T08:05:40.980Z,111.43
2018-11-11T08:08:08.032Z,102.43
2018-11-11T08:10:40.762Z,110.73
2018-11-11T08:13:07.840Z,114.53
2018-11-11T08:15:34.876Z,108.63
2018-11-11T08:18:02.468Z,113.70
2018-11-11T08:20:29.540Z,112.00
2018-11-11T08:22:56.599Z,102.43
2018-11-11T08:25:23.687Z,97.20
2018-11-11T08:27:50.732Z,91.93
2018-11-11T08:30:17.804Z,97.77
2018-11-11T08:32:45.215Z,98.27
2018-11-11T08:35:12.259Z,99.10
2018-11-11T08:37:39.491Z,92.40
2018-11-11T08:40:07.331Z,96.57
2018-11-11T08:42:34.415Z,94.17
2018-11-11T08:45:01.653Z,94.67
2018-11-11T08:47:28.837Z,91.23
2018-11-11T08:49:55.968Z,88.00
2018-11-11T08:52:23.060Z,92.43
2018-11-11T08:54:50.443Z,86.10
2018-11-11T08:57:17.480Z,86.63
2018-11-11T08:59:44.556Z,81.43
2018-11-11T09:02:11.864Z,85.33
2018-11-11T09:04:38.920Z,79.97
2018-11-11T09:07:05.935Z,81.00
2018-11-11T09:09:33.156Z,80.87
2018-11-11T09:12:00.232Z,79.63
2018-11-11T09:14:27.316Z,81.83
2018-11-11T09:16:54.387Z,78.03
2018-11-11T09:19:21.434Z,75.83
2018-11-11T09:21:48.460Z,74.60
2018-11-11T09:24:15.956Z,77.97
2018-11-11T09:26:42.981Z,79.40
2018-11-11T09:29:10.021Z,73.23
2018-11-11T09:31:37.104Z,78.40
2018-11-11T09:34:04.195Z,69.97
2018-11-11T09:36:31.241Z,79.63
2018-11-11T09:38:58.371Z,75.57
2018-11-11T09:43:59.425Z,81.77
2018-11-11T09:46:26.484Z,78.77
2018-11-11T09:48:53.584Z,79.77
2018-11-11T09:51:20.895Z,78.27
2018-11-11T09:53:47.947Z,72.07
2018-11-11T09:56:15.037Z,76.70
2018-11-11T09:58:42.572Z,70.97
2018-11-11T10:01:09.624Z,79.70
2018-11-11T10:03:39.392Z,80.17
2018-11-11T10:06:12.701Z,84.73
2018-11-11T10:08:43.642Z,86.80
2018-11-11T10:11:17.490Z,79.93
2018-11-11T10:13:49.688Z,79.83
2018-11-11T10:16:31.175Z,79.83
2018-11-11T10:19:04.884Z,78.33
2018-11-11T10:21:36.609Z,74.10
2018-11-11T10:24:08.207Z,70.10
2018-11-11T10:26:43.295Z,70.70
2018-11-11T10:29:14.694Z,77.53
2018-11-11T10:32:03.865Z,70.50
2018-11-11T10:34:34.901Z,64.63
2018-11-11T10:37:07.696Z,75.47
2018-11-11T10:39:40.764Z,71.57
2018-11-11T10:42:13.666Z,76.50
2018-11-11T10:45:44.160Z,75.37
2018-11-11T10:48:13.757Z,72.63
2018-11-11T10:50:43.801Z,69.47
2018-11-11T10:53:10.845Z,72.03
2018-11-11T10:55:38.179Z,82.77
2018-11-11T10:58:05.230Z,80.57
2018-11-11T11:00:38.339Z,76.53
2018-11-11T11:03:11.136Z,79.53
2018-11-11T11:05:38.464Z,71.60
2018-11-11T11:08:05.499Z,74.03
2018-11-11T11:10:32.544Z,76.03
2018-11-11T11:12:59.615Z,85.50
2018-11-11T11:15:26.663Z,74.70
2018-11-11T11:17:53.768Z,74.03
2018-11-11T11:20:21.155Z,79.37
2018-11-11T11:22:48.257Z,75.53
2018-11-11T11:25:15.252Z,80.97
2018-11-11T11:27:42.933Z,73.27
2018-11-11T11:30:11.517Z,74.37
2018-11-11T11:32:38.644Z,71.77
2018-11-11T11:35:06.568Z,80.37
2018-11-11T11:37:33.641Z,77.80
2018-11-11T11:40:00.745Z,80.07
2018-11-11T11:42:27.840Z,79.13
2018-11-11T11:44:54.896Z,73.63
2018-11-11T11:47:21.966Z,74.13
2018-11-11T11:49:49.026Z,69.20
2018-11-11T11:52:16.210Z,71.23
2018-11-11T11:54:43.224Z,83.43
2018-11-11T11:57:10.567Z,87.10
2018-11-11T11:59:37.636Z,83.43
2018-11-11T12:02:04.836Z,79.57
2018-11-11T12:04:31.909Z,86.80
2018-11-11T12:06:58.962Z,83.63
2018-11-11T12:09:26.016Z,87.60
2018-11-11T12:11:53.065Z,92.10
2018-11-11T12:14:20.332Z,106.77
2018-11-11T12:16:47.486Z,97.70
2018-11-11T12:19:15.040Z,88.60
2018-11-11T12:21:42.092Z,93.00
2018-11-11T12:24:11.298Z,104.90
2018-11-11T12:26:42.837Z,84.97
2018-11-11T12:29:10.132Z,87.47
2018-11-11T12:31:37.212Z,94.23
2018-11-11T12:34:04.717Z,95.97
2018-11-11T12:36:31.804Z,112.77
2018-11-11T12:38:58.916Z,99.50
2018-11-11T12:41:25.927Z,95.07
2018-11-11T12:43:53.052Z,95.17
2018-11-11T12:46:20.213Z,80.83
2018-11-11T12:48:47.414Z,81.50
2018-11-11T12:51:14.413Z,83.40
2018-11-11T12:53:41.455Z,84.07
2018-11-11T12:56:09.157Z,73.40
2018-11-11T12:58:36.244Z,74.97
2018-11-11T13:01:03.312Z,73.67
2018-11-11T13:03:30.380Z,79.73
2018-11-11T13:05:57.416Z,78.77
2018-11-11T13:08:24.486Z,71.60
2018-11-11T13:10:51.589Z,78.20
2018-11-11T13:13:18.637Z,72.70
2018-11-11T13:15:45.691Z,71.43
2018-11-11T13:18:12.743Z,64.50
2018-11-11T13:20:39.884Z,64.67
2018-11-11T13:23:06.935Z,65.47
2018-11-11T13:25:34.052Z,59.60
2018-11-11T13:28:01.083Z,66.23
2018-11-11T13:30:28.127Z,61.60
2018-11-11T13:32:55.459Z,70.97
2018-11-11T13:35:22.496Z,72.37
2018-11-11T13:37:49.655Z,65.57
2018-11-11T13:40:17.949Z,66.47
2018-11-11T13:42:44.980Z,73.63
2018-11-11T13:45:14.808Z,65.63
2018-11-11T13:47:42.841Z,61.87
2018-11-11T13:50:12.392Z,67.00
2018-11-11T13:52:39.396Z,63.43
2018-11-11T13:55:07.257Z,63.50
2018-11-11T13:57:34.339Z,69.83
2018-11-11T14:00:01.428Z,70.30
2018-11-11T14:02:28.623Z,64.43
2018-11-11T14:04:55.696Z,59.97
2018-11-11T14:07:22.849Z,51.97
2018-11-11T14:09:50.064Z,57.17
2018-11-11T14:12:27.654Z,57.57
2018-11-11T14:14:54.743Z,53.93
2018-11-11T14:17:21.800Z,56.90
2018-11-11T14:19:48.930Z,58.07
2018-11-11T14:22:15.953Z,65.30
2018-11-11T14:24:43.062Z,56.40
2018-11-11T14:27:10.046Z,54.87
2018-11-11T14:29:37.360Z,55.00
2018-11-11T14:32:04.496Z,53.33
2018-11-11T14:34:31.600Z,52.67
2018-11-11T14:36:58.716Z,52.80
2018-11-11T14:39:25.787Z,53.13
2018-11-11T14:41:52.895Z,51.30
2018-11-11T14:44:20.224Z,54.40
2018-11-11T14:46:47.263Z,49.80
2018-11-11T14:49:14.331Z,47.43
2018-11-11T14:51:41.427Z,48.63
2018-11-11T14:54:09.490Z,52.53
2018-11-11T14:56:37.118Z,54.43
2018-11-11T14:59:04.325Z,50.90
2018-11-11T15:01:31.597Z,50.23
2018-11-11T15:03:58.653Z,58.87
2018-11-11T15:06:25.892Z,50.67
2018-11-11T15:08:53.101Z,58.70
2018-11-11T15:11:20.284Z,56.90
2018-11-11T15:13:47.484Z,59.93
2018-11-11T15:16:15.548Z,53.40
2018-11-11T15:18:42.684Z,53.90
2018-11-11T15:21:10.103Z,63.57
2018-11-11T15:23:37.266Z,56.80
2018-11-11T15:26:04.766Z,66.37
2018-11-11T15:28:31.955Z,63.73
2018-11-11T15:30:59.130Z,63.07
2018-11-11T15:33:26.207Z,61.63
2018-11-11T15:35:56.554Z,61.00
2018-11-11T15:38:23.660Z,92.10
2018-11-11T15:40:50.896Z,58.77
2018-11-11T15:43:18.022Z,61.70
2018-11-11T15:45:45.116Z,56.33
2018-11-11T15:48:17.799Z,62.23
2018-11-11T15:50:44.822Z,54.00
2018-11-11T15:53:12.057Z,54.10
2018-11-11T15:55:39.888Z,56.00
2018-11-11T15:58:07.240Z,55.47
2018-11-11T16:00:35.751Z,55.57
2018-11-11T16:03:02.811Z,57.57
2018-11-11T16:05:29.868Z,55.07
2018-11-11T16:07:57.699Z,58.50
2018-11-11T16:10:26.356Z,57.93
2018-11-11T16:15:28.754Z,49.17
2018-11-11T16:17:57.467Z,61.27
2018-11-11T16:20:25.637Z,57.73
2018-11-11T16:22:54.022Z,59.40
2018-11-11T16:25:21.164Z,59.60
2018-11-11T16:27:48.635Z,52.93
2018-11-11T16:30:17.501Z,53.73
2018-11-11T16:32:44.972Z,44.83
2018-11-11T16:35:13.236Z,44.53
2018-11-11T16:37:40.703Z,59.90
2018-11-11T16:40:08.804Z,49.90
2018-11-11T16:42:36.045Z,45.90
2018-11-11T16:45:03.522Z,44.53
2018-11-11T16:47:30.597Z,45.13
2018-11-11T16:49:57.631Z,42.27
2018-11-11T16:52:24.768Z,41.37
2018-11-11T16:54:51.805Z,40.73
2018-11-11T16:57:18.835Z,41.67
2018-11-11T16:59:45.936Z,42.93
2018-11-11T17:02:13.084Z,44.63
2018-11-11T17:04:40.128Z,45.40
2018-11-11T17:07:07.504Z,43.30
2018-11-11T17:09:34.544Z,49.03
2018-11-11T17:12:01.667Z,44.33
2018-11-11T17:14:28.739Z,48.93
2018-11-11T17:16:55.794Z,42.40
2018-11-11T17:19:22.827Z,39.63
2018-11-11T17:21:50.093Z,40.30
2018-11-11T17:24:16.940Z,42.40
2018-11-11T17:26:43.991Z,38.40
2018-11-11T17:29:11.276Z,38.83
2018-11-11T17:31:38.335Z,30.97
2018-11-11T17:34:05.401Z,35.87
2018-11-11T17:36:33.278Z,37.43
2018-11-11T17:39:00.613Z,33.77
2018-11-11T17:41:27.705Z,32.30
2018-11-11T17:43:55.294Z,30.40
2018-11-11T17:46:22.424Z,27.60
2018-11-11T17:48:49.540Z,28.70
2018-11-11T17:51:16.941Z,34.37
2018-11-11T17:53:44.107Z,31.50
2018-11-11T17:56:11.236Z,35.17
2018-11-11T17:58:38.377Z,27.93
2018-11-11T18:01:05.855Z,29.73
2018-11-11T18:03:32.953Z,31.53
2018-11-11T18:06:00.350Z,30.43
2018-11-11T18:08:27.600Z,31.10
2018-11-11T18:10:54.720Z,34.83
2018-11-11T18:13:22.227Z,37.07
2018-11-11T18:15:49.341Z,33.67
2018-11-11T18:18:16.539Z,34.87
2018-11-11T18:20:43.949Z,38.80
2018-11-11T18:23:11.011Z,35.60
2018-11-11T18:25:38.280Z,33.03
2018-11-11T18:28:05.484Z,38.87
2018-11-11T18:30:33.855Z,31.97
2018-11-11T18:33:01.016Z,35.20
2018-11-11T18:35:29.123Z,34.47
2018-11-11T18:37:56.388Z,31.90
2018-11-11T18:40:24.773Z,31.13
2018-11-11T18:42:51.845Z,32.33
2018-11-11T18:45:21.171Z,35.90
2018-11-11T18:47:48.877Z,29.73
2018-11-11T18:50:20.100Z,33.40
2018-11-11T18:52:47.175Z,34.63
2018-11-11T18:55:14.299Z,26.90
2018-11-11T18:57:42.006Z,34.30
2018-11-11T19:00:10.488Z,31.27
2018-11-11T19:02:37.524Z,33.90
2018-11-11T19:05:05.111Z,37.20
2018-11-11T19:07:32.206Z,31.83
2018-11-11T19:10:01.113Z,31.03
2018-11-11T19:12:28.141Z,28.17
2018-11-11T19:14:55.329Z,34.00
2018-11-11T19:17:22.360Z,28.53
2018-11-11T19:19:49.712Z,30.37
2018-11-11T19:22:17.186Z,31.17
2018-11-11T19:24:44.417Z,33.70
2018-11-11T19:27:11.464Z,30.37
2018-11-11T19:29:38.537Z,29.10
2018-11-11T19:32:05.938Z,30.73
2018-11-11T19:34:34.675Z,32.60
2018-11-11T19:37:02.000Z,38.13
2018-11-11T19:39:29.057Z,29.43
2018-11-11T19:41:56.448Z,34.60
2018-11-11T19:44:23.505Z,34.10
2018-11-11T19:46:50.639Z,35.87
2018-11-11T19:49:18.061Z,33.87
2018-11-11T19:51:46.226Z,34.90
2018-11-11T19:54:13.259Z,33.90
2018-11-11T19:56:40.389Z,40.50
2018-11-11T19:59:07.691Z,33.83
2018-11-11T20:01:34.762Z,30.73
2018-11-11T20:04:01.889Z,35.40
2018-11-11T20:06:28.987Z,34.87
2018-11-11T20:08:56.229Z,33.57
2018-11-11T20:11:23.425Z,31.33
2018-11-11T20:13:50.836Z,30.03
2018-11-11T20:16:17.911Z,34.13
2018-11-11T20:18:45.325Z,28.30
2018-11-11T20:21:12.440Z,30.93
2018-11-11T20:23:39.614Z,34.80
2018-11-11T20:26:06.815Z,30.17
2018-11-11T20:28:33.845Z,29.00
2018-11-11T20:31:01.065Z,28.03
2018-11-11T20:33:28.236Z,28.43
2018-11-11T20:35:55.414Z,35.17
2018-11-11T20:38:22.480Z,28.10
2018-11-11T20:40:49.724Z,25.10
2018-11-11T20:43:16.827Z,26.13
2018-11-11T20:45:43.921Z,30.60
2018-11-11T20:48:11.068Z,26.57
2018-11-11T20:50:38.104Z,28.97
2018-11-11T20:53:05.679Z,26.13
2018-11-11T20:55:33.282Z,30.53
2018-11-11T20:58:00.590Z,31.80
2018-11-11T21:00:30.902Z,26.47
2018-11-11T21:02:58.032Z,25.10
2018-11-11T21:05:26.237Z,25.13
2018-11-11T21:07:53.387Z,26.00
2018-11-11T21:10:21.751Z,30.10
2018-11-11T21:12:48.849Z,37.63
2018-11-11T21:15:17.165Z,24.07
2018-11-11T21:17:44.827Z,28.43
2018-11-11T21:20:13.314Z,24.90
2018-11-11T21:22:40.858Z,26.10
2018-11-11T21:25:08.460Z,23.63
2018-11-11T21:27:36.487Z,27.50
2018-11-11T21:30:04.376Z,28.70
2018-11-11T21:32:31.460Z,29.53
2018-11-11T21:34:58.511Z,31.30
2018-11-11T21:37:25.648Z,37.93
2018-11-11T21:39:53.032Z,35.30
2018-11-11T21:42:20.077Z,36.30
2018-11-11T21:44:47.154Z,42.07
2018-11-11T21:47:14.277Z,46.90
2018-11-11T21:49:41.320Z,41.23
2018-11-11T21:52:08.383Z,36.00
2018-11-11T21:54:35.619Z,38.60
2018-11-11T21:57:03.141Z,40.10
2018-11-11T21:59:30.378Z,35.40
2018-11-11T22:01:58.080Z,35.93
2018-11-11T22:04:25.260Z,40.20
2018-11-11T22:06:52.395Z,40.27
2018-11-11T22:09:19.783Z,38.20
2018-11-11T22:11:46.898Z,31.87
2018-11-11T22:14:13.965Z,36.93
2018-11-11T22:16:41.038Z,34.77
2018-11-11T22:19:08.602Z,36.37
2018-11-11T22:21:35.700Z,36.37
2018-11-11T22:24:03.072Z,32.20
2018-11-11T22:26:30.125Z,35.40
2018-11-11T22:28:57.244Z,32.97
2018-11-11T22:31:26.079Z,41.90
2018-11-11T22:33:53.244Z,29.30
2018-11-11T22:36:20.288Z,37.50
2018-11-11T22:38:47.430Z,34.90
2018-11-11T22:41:14.565Z,38.53
2018-11-11T22:43:41.683Z,33.47
2018-11-11T22:46:08.817Z,36.10
2018-11-11T22:48:35.867Z,38.53
2018-11-11T22:51:02.919Z,30.10
2018-11-11T22:53:30.240Z,38.43
2018-11-11T22:55:57.285Z,30.23
2018-11-11T22:58:24.367Z,30.57
2018-11-11T23:00:57.675Z,34.70
2018-11-11T23:03:24.749Z,30.33
2018-11-11T23:05:51.809Z,32.80
2018-11-11T23:08:19.251Z,31.60
2018-11-11T23:10:46.291Z,33.47
2018-11-11T23:13:13.408Z,31.47
2018-11-11T23:15:40.489Z,31.57
2018-11-11T23:18:07.547Z,32.40
2018-11-11T23:20:34.669Z,29.53
2018-11-11T23:23:01.992Z,28.50
2018-11-11T23:25:29.065Z,31.13
2018-11-11T23:27:56.145Z,33.03
2018-11-11T23:30:23.440Z,28.80
2018-11-11T23:32:50.981Z,28.97
2018-11-11T23:35:18.029Z,30.10
2018-11-11T23:37:45.297Z,29.40
2018-11-11T23:40:14.686Z,34.63
2018-11-11T23:42:42.559Z,30.57
2018-11-11T23:45:09.993Z,33.27
2018-11-11T23:47:37.080Z,31.00
2018-11-11T23:50:05.625Z,28.97
2018-11-11T23:52:32.723Z,34.23
2018-11-11T23:54:59.772Z,32.47
2018-11-11T23:57:27.414Z,36.40
2018-11-11T23:59:54.765Z,35.00
